createdAt,value
2018-12-22T00:00:31.554Z,45.18
2018-12-22T00:01:31.966Z,45.2
2018-12-22T00:02:32.353Z,45.18
2018-12-22T00:03:31.441Z,45.17
2018-12-22T00:04:31.748Z,45.19
2018-12-22T00:05:31.506Z,45.17
2018-12-22T00:06:31.484Z,45.17
2018-12-22T00:07:31.626Z,45.21
2018-12-22T00:08:31.390Z,45.17
2018-12-22T00:09:31.441Z,45.21
2018-12-22T00:10:31.716Z,45.21
2018-12-22T00:11:31.473Z,45.18
2018-12-22T00:12:31.548Z,45.23
2018-12-22T00:13:31.539Z,45.21
2018-12-22T00:14:32.061Z,45.21
2018-12-22T00:15:31.974Z,45.25
2018-12-22T00:16:31.461Z,45.22
2018-12-22T00:17:31.780Z,45.23
2018-12-22T00:18:31.342Z,45.2
2018-12-22T00:19:31.402Z,45.2
2018-12-22T00:20:31.693Z,45.27
2018-12-22T00:21:31.426Z,45.22
2018-12-22T00:22:31.550Z,45.24
2018-12-22T00:23:31.464Z,45.23
2018-12-22T00:24:31.575Z,45.28
2018-12-22T00:25:31.393Z,45.25
2018-12-22T00:26:31.651Z,45.24
2018-12-22T00:27:31.678Z,45.24
2018-12-22T00:28:31.459Z,45.25
2018-12-22T00:29:31.718Z,45.24
2018-12-22T00:30:31.510Z,45.28
2018-12-22T00:31:30.743Z,45.27
2018-12-22T00:32:31.411Z,45.25
2018-12-22T00:33:31.695Z,45.28
2018-12-22T00:34:31.502Z,45.33
2018-12-22T00:35:31.782Z,45.28
2018-12-22T00:36:31.279Z,45.3
2018-12-22T00:37:32.253Z,45.29
2018-12-22T00:38:31.657Z,45.26
2018-12-22T00:39:31.662Z,45.31
2018-12-22T00:40:31.445Z,45.3
2018-12-22T00:41:30.911Z,45.33
2018-12-22T00:42:31.581Z,45.33
2018-12-22T00:43:31.380Z,45.34
2018-12-22T00:44:31.629Z,45.32
2018-12-22T00:45:31.436Z,45.34
2018-12-22T00:46:30.910Z,45.32
2018-12-22T00:47:32.292Z,45.26
2018-12-22T00:48:31.618Z,45.34
2018-12-22T00:49:31.396Z,45.34
2018-12-22T00:50:31.416Z,45.32
2018-12-22T00:51:31.497Z,45.31
2018-12-22T00:52:31.321Z,45.34
2018-12-22T00:53:31.809Z,45.37
2018-12-22T00:54:31.598Z,45.37
2018-12-22T00:55:30.918Z,45.37
2018-12-22T00:56:31.508Z,45.37
2018-12-22T00:57:31.313Z,45.31
2018-12-22T00:58:31.546Z,45.39
2018-12-22T00:59:31.629Z,45.38
2018-12-22T01:00:31.644Z,45.39
2018-12-22T01:01:31.453Z,45.36
2018-12-22T01:02:31.741Z,45.4
2018-12-22T01:03:31.610Z,45.38
2018-12-22T01:04:30.880Z,45.36
2018-12-22T01:05:31.630Z,45.41
2018-12-22T01:06:31.400Z,45.41
2018-12-22T01:07:31.392Z,45.35
2018-12-22T01:08:31.529Z,45.41
2018-12-22T01:09:31.846Z,45.41
2018-12-22T01:10:31.635Z,45.42
2018-12-22T01:11:31.620Z,45.41
2018-12-22T01:12:31.470Z,45.4
2018-12-22T01:13:31.491Z,45.37
2018-12-22T01:14:31.269Z,45.38
2018-12-22T01:15:31.606Z,45.43
2018-12-22T01:16:31.110Z,45.44
2018-12-22T01:17:31.369Z,45.43
2018-12-22T01:18:31.442Z,45.39
2018-12-22T01:19:31.440Z,45.42
2018-12-22T01:20:31.259Z,45.4
2018-12-22T01:21:31.525Z,45.41
2018-12-22T01:22:31.397Z,45.38
2018-12-22T01:23:31.628Z,45.38
2018-12-22T01:24:31.433Z,45.39
2018-12-22T01:25:31.207Z,45.41
2018-12-22T01:26:31.509Z,45.42
2018-12-22T01:27:31.266Z,45.38
2018-12-22T01:28:39.756Z,45.41
2018-12-22T01:29:31.261Z,45.4
2018-12-22T01:30:31.362Z,45.41
2018-12-22T01:31:31.362Z,45.45
2018-12-22T01:32:31.432Z,45.4
2018-12-22T01:33:31.732Z,45.42
2018-12-22T01:34:31.373Z,45.41
2018-12-22T01:35:31.549Z,45.44
2018-12-22T01:36:31.594Z,45.42
2018-12-22T01:37:30.666Z,45.44
2018-12-22T01:38:31.149Z,45.41
2018-12-22T01:39:31.787Z,45.46
2018-12-22T01:40:31.040Z,45.46
2018-12-22T01:41:31.885Z,45.41
2018-12-22T01:42:31.641Z,45.45
2018-12-22T01:43:31.688Z,45.46
2018-12-22T01:44:31.999Z,45.46
2018-12-22T01:45:31.517Z,45.42
2018-12-22T01:46:31.748Z,45.42
2018-12-22T01:47:31.353Z,45.44
2018-12-22T01:48:31.324Z,45.45
2018-12-22T01:49:30.845Z,45.44
2018-12-22T01:50:31.446Z,45.44
2018-12-22T01:51:31.754Z,45.44
2018-12-22T01:52:31.288Z,45.46
2018-12-22T01:53:31.805Z,45.45
2018-12-22T01:54:32.113Z,45.46
2018-12-22T01:55:30.891Z,45.41
2018-12-22T01:56:31.735Z,45.43
2018-12-22T01:57:31.491Z,45.44
2018-12-22T01:58:31.293Z,45.45
2018-12-22T01:59:31.312Z,45.49
2018-12-22T02:00:31.357Z,45.44
2018-12-22T02:01:31.404Z,45.42
2018-12-22T02:02:32.002Z,45.44
2018-12-22T02:03:31.474Z,45.45
2018-12-22T02:04:31.501Z,45.44
2018-12-22T02:05:31.575Z,45.44
2018-12-22T02:06:31.351Z,45.42
2018-12-22T02:07:31.656Z,45.45
2018-12-22T02:08:31.650Z,45.48
2018-12-22T02:09:31.449Z,45.46
2018-12-22T02:10:31.561Z,45.51
2018-12-22T02:11:31.514Z,45.48
2018-12-22T02:12:31.391Z,45.47
2018-12-22T02:13:31.382Z,45.46
2018-12-22T02:14:31.431Z,45.5
2018-12-22T02:15:31.498Z,45.5
2018-12-22T02:16:31.291Z,45.5
2018-12-22T02:17:31.559Z,45.5
2018-12-22T02:18:31.829Z,45.49
2018-12-22T02:19:31.146Z,45.52
2018-12-22T02:20:31.447Z,45.54
2018-12-22T02:21:31.405Z,45.49
2018-12-22T02:22:31.566Z,45.5
2018-12-22T02:23:31.535Z,45.51
2018-12-22T02:24:31.654Z,45.48
2018-12-22T02:25:31.386Z,45.5
2018-12-22T02:26:31.722Z,45.49
2018-12-22T02:27:31.201Z,45.51
2018-12-22T02:28:31.252Z,45.48
2018-12-22T02:29:31.541Z,45.5
2018-12-22T02:30:31.597Z,45.48
2018-12-22T02:31:31.384Z,45.47
2018-12-22T02:32:31.453Z,45.53
2018-12-22T02:33:31.426Z,45.51
2018-12-22T02:34:31.219Z,45.5
2018-12-22T02:35:31.523Z,45.49
2018-12-22T02:36:31.604Z,45.52
2018-12-22T02:37:31.671Z,45.49
2018-12-22T02:38:31.384Z,45.48
2018-12-22T02:39:31.472Z,45.45
2018-12-22T02:40:31.787Z,45.48
2018-12-22T02:41:31.592Z,45.47
2018-12-22T02:42:31.916Z,45.5
2018-12-22T02:43:31.880Z,45.49
2018-12-22T02:44:31.674Z,45.49
2018-12-22T02:45:31.489Z,45.47
2018-12-22T02:46:31.241Z,45.5
2018-12-22T02:47:31.534Z,45.47
2018-12-22T02:48:31.332Z,45.48
2018-12-22T02:49:31.468Z,45.51
2018-12-22T02:50:31.439Z,45.5
2018-12-22T02:51:31.721Z,45.5
2018-12-22T02:52:31.306Z,45.49
2018-12-22T02:53:31.794Z,45.49
2018-12-22T02:54:31.389Z,45.55
2018-12-22T02:55:31.584Z,45.5
2018-12-22T02:56:31.179Z,45.53
2018-12-22T02:57:31.794Z,45.56
2018-12-22T02:58:31.586Z,45.5
2018-12-22T02:59:31.559Z,45.49
2018-12-22T03:00:31.431Z,45.52
2018-12-22T03:01:31.422Z,45.53
2018-12-22T03:02:31.251Z,45.48
2018-12-22T03:03:31.507Z,45.5
2018-12-22T03:04:31.337Z,45.47
2018-12-22T03:05:31.348Z,45.49
2018-12-22T03:06:31.426Z,45.5
2018-12-22T03:07:31.704Z,45.5
2018-12-22T03:08:31.473Z,45.49
2018-12-22T03:09:31.492Z,45.47
2018-12-22T03:10:31.776Z,45.49
2018-12-22T03:11:31.357Z,45.49
2018-12-22T03:12:31.648Z,45.49
2018-12-22T03:13:31.449Z,45.48
2018-12-22T03:14:31.720Z,45.41
2018-12-22T03:15:31.532Z,45.44
2018-12-22T03:16:31.506Z,45.48
2018-12-22T03:17:31.623Z,45.44
2018-12-22T03:18:31.641Z,45.46
2018-12-22T03:19:31.673Z,45.46
2018-12-22T03:20:31.756Z,45.46
2018-12-22T03:21:31.475Z,45.47
2018-12-22T03:22:32.256Z,45.47
2018-12-22T03:23:31.558Z,45.47
2018-12-22T03:24:31.314Z,45.49
2018-12-22T03:25:31.177Z,45.46
2018-12-22T03:26:31.676Z,45.48
2018-12-22T03:27:31.231Z,45.47
2018-12-22T03:28:31.300Z,45.51
2018-12-22T03:29:31.586Z,45.49
2018-12-22T03:30:31.906Z,45.46
2018-12-22T03:31:31.650Z,45.43
2018-12-22T03:32:31.458Z,45.49
2018-12-22T03:33:31.470Z,45.5
2018-12-22T03:34:31.575Z,45.48
2018-12-22T03:35:31.326Z,45.5
2018-12-22T03:36:31.318Z,45.52
2018-12-22T03:37:31.390Z,45.48
2018-12-22T03:38:31.894Z,45.48
2018-12-22T03:39:31.212Z,45.44
2018-12-22T03:40:31.747Z,45.49
2018-12-22T03:41:31.537Z,45.49
2018-12-22T03:42:31.367Z,45.51
2018-12-22T03:43:30.865Z,45.53
2018-12-22T03:44:31.667Z,45.51
2018-12-22T03:45:31.759Z,45.53
2018-12-22T03:46:30.925Z,45.47
2018-12-22T03:47:31.580Z,45.53
2018-12-22T03:48:32.159Z,45.5
2018-12-22T03:49:31.450Z,45.51
2018-12-22T03:50:31.730Z,45.51
2018-12-22T03:51:30.758Z,45.54
2018-12-22T03:52:31.057Z,45.47
2018-12-22T03:53:31.352Z,45.52
2018-12-22T03:54:31.657Z,45.5
2018-12-22T03:55:31.180Z,45.51
2018-12-22T03:56:31.662Z,45.46
2018-12-22T03:57:31.275Z,45.53
2018-12-22T03:58:31.557Z,45.51
2018-12-22T03:59:31.541Z,45.51
2018-12-22T04:00:30.884Z,45.54
2018-12-22T04:01:31.671Z,45.55
2018-12-22T04:02:31.234Z,45.53
2018-12-22T04:03:31.529Z,45.54
2018-12-22T04:04:31.974Z,45.52
2018-12-22T04:05:31.578Z,45.55
2018-12-22T04:06:31.405Z,45.55
2018-12-22T04:07:31.401Z,45.53
2018-12-22T04:08:31.722Z,45.55
2018-12-22T04:09:32.215Z,45.58
2018-12-22T04:10:31.544Z,45.56
2018-12-22T04:11:31.369Z,45.53
2018-12-22T04:12:31.651Z,45.53
2018-12-22T04:13:31.390Z,45.56
2018-12-22T04:14:31.499Z,45.53
2018-12-22T04:15:31.731Z,45.56
2018-12-22T04:16:31.528Z,45.57
2018-12-22T04:17:31.594Z,45.57
2018-12-22T04:18:31.608Z,45.55
2018-12-22T04:19:31.395Z,45.59
2018-12-22T04:20:31.413Z,45.57
2018-12-22T04:21:31.477Z,45.56
2018-12-22T04:22:31.520Z,45.6
2018-12-22T04:23:31.539Z,45.58
2018-12-22T04:24:31.856Z,45.57
2018-12-22T04:25:30.846Z,45.58
2018-12-22T04:26:31.675Z,45.55
2018-12-22T04:27:31.224Z,45.55
2018-12-22T04:28:31.790Z,45.56
2018-12-22T04:29:34.463Z,45.58
2018-12-22T04:30:31.815Z,45.57
2018-12-22T04:31:30.733Z,45.59
2018-12-22T04:32:31.406Z,45.61
2018-12-22T04:33:31.424Z,45.55
2018-12-22T04:34:31.976Z,45.58
2018-12-22T04:35:31.494Z,45.55
2018-12-22T04:36:31.324Z,45.57
2018-12-22T04:37:31.013Z,45.57
2018-12-22T04:38:31.339Z,45.55
2018-12-22T04:39:31.714Z,45.59
2018-12-22T04:40:31.674Z,45.57
2018-12-22T04:41:31.298Z,45.55
2018-12-22T04:42:31.376Z,45.57
2018-12-22T04:43:31.416Z,45.6
2018-12-22T04:44:31.672Z,45.63
2018-12-22T04:45:31.764Z,45.59
2018-12-22T04:46:31.530Z,45.58
2018-12-22T04:47:31.530Z,45.61
2018-12-22T04:48:31.342Z,45.63
2018-12-22T04:49:31.364Z,45.6
2018-12-22T04:50:31.607Z,45.57
2018-12-22T04:51:31.492Z,45.56
2018-12-22T04:52:30.990Z,45.57
2018-12-22T04:53:31.477Z,45.54
2018-12-22T04:54:31.309Z,45.58
2018-12-22T04:55:31.348Z,45.55
2018-12-22T04:56:31.402Z,45.51
2018-12-22T04:57:31.386Z,45.55
2018-12-22T04:58:31.475Z,45.5
2018-12-22T04:59:31.483Z,45.51
2018-12-22T05:00:31.277Z,45.54
2018-12-22T05:01:31.506Z,45.5
2018-12-22T05:02:31.772Z,45.45
2018-12-22T05:03:31.423Z,45.44
2018-12-22T05:04:31.370Z,45.42
2018-12-22T05:05:31.730Z,45.4
2018-12-22T05:06:31.492Z,45.4
2018-12-22T05:07:31.329Z,45.41
2018-12-22T05:08:31.560Z,45.36
2018-12-22T05:09:31.074Z,45.36
2018-12-22T05:10:31.425Z,45.34
2018-12-22T05:11:31.396Z,45.35
2018-12-22T05:12:31.641Z,45.3
2018-12-22T05:13:31.070Z,45.34
2018-12-22T05:14:31.583Z,45.33
2018-12-22T05:15:31.135Z,45.33
2018-12-22T05:16:32.191Z,45.35
2018-12-22T05:17:31.499Z,45.31
2018-12-22T05:18:31.490Z,45.34
2018-12-22T05:19:31.561Z,45.37
2018-12-22T05:20:31.381Z,45.33
2018-12-22T05:21:31.637Z,45.3
2018-12-22T05:22:31.439Z,45.35
2018-12-22T05:23:30.649Z,45.44
2018-12-22T05:24:31.237Z,45.33
2018-12-22T05:25:31.362Z,45.39
2018-12-22T05:26:31.341Z,45.35
2018-12-22T05:27:31.441Z,45.33
2018-12-22T05:28:31.405Z,45.28
2018-12-22T05:29:31.504Z,45.37
2018-12-22T05:30:31.329Z,45.34
2018-12-22T05:31:31.546Z,45.34
2018-12-22T05:32:31.605Z,45.34
2018-12-22T05:33:31.659Z,45.39
2018-12-22T05:34:31.421Z,45.3
2018-12-22T05:35:31.232Z,45.37
2018-12-22T05:36:31.782Z,45.33
2018-12-22T05:37:31.334Z,45.34
2018-12-22T05:38:31.635Z,45.33
2018-12-22T05:39:31.435Z,45.34
2018-12-22T05:40:31.190Z,45.39
2018-12-22T05:41:31.842Z,45.35
2018-12-22T05:42:31.558Z,45.35
2018-12-22T05:43:31.602Z,45.34
2018-12-22T05:44:31.431Z,45.34
2018-12-22T05:45:31.230Z,45.37
2018-12-22T05:46:31.523Z,45.32
2018-12-22T05:47:31.324Z,45.31
2018-12-22T05:48:31.336Z,45.38
2018-12-22T05:49:31.111Z,45.34
2018-12-22T05:50:31.190Z,45.35
2018-12-22T05:51:31.206Z,45.27
2018-12-22T05:52:31.756Z,45.33
2018-12-22T05:53:31.269Z,45.31
2018-12-22T05:54:31.596Z,45.29
2018-12-22T05:55:31.687Z,45.3
2018-12-22T05:56:31.457Z,45.38
2018-12-22T05:57:31.453Z,45.29
2018-12-22T05:58:31.201Z,45.24
2018-12-22T05:59:31.766Z,45.31
2018-12-22T06:00:31.290Z,45.3
2018-12-22T06:01:31.595Z,45.33
2018-12-22T06:02:31.132Z,45.29
2018-12-22T06:03:31.446Z,45.29
2018-12-22T06:04:31.748Z,45.26
2018-12-22T06:05:31.235Z,45.25
2018-12-22T06:06:30.896Z,45.33
2018-12-22T06:07:31.300Z,45.26
2018-12-22T06:08:31.751Z,45.27
2018-12-22T06:09:31.430Z,45.32
2018-12-22T06:10:31.201Z,45.27
2018-12-22T06:11:31.547Z,45.26
2018-12-22T06:12:31.304Z,45.23
2018-12-22T06:13:32.112Z,45.3
2018-12-22T06:14:31.424Z,45.28
2018-12-22T06:15:31.433Z,45.29
2018-12-22T06:16:31.479Z,45.3
2018-12-22T06:17:31.282Z,45.25
2018-12-22T06:18:31.813Z,45.28
2018-12-22T06:19:30.805Z,45.34
2018-12-22T06:20:31.638Z,45.27
2018-12-22T06:21:31.233Z,45.2
2018-12-22T06:22:31.502Z,45.23
2018-12-22T06:23:31.515Z,45.22
2018-12-22T06:24:31.268Z,45.22
2018-12-22T06:25:31.520Z,45.21
2018-12-22T06:26:31.321Z,45.2
2018-12-22T06:27:31.086Z,45.23
2018-12-22T06:28:31.208Z,45.16
2018-12-22T06:29:31.206Z,45.15
2018-12-22T06:30:31.725Z,45.21
2018-12-22T06:31:31.063Z,45.19
2018-12-22T06:32:31.308Z,45.21
2018-12-22T06:33:31.300Z,45.22
2018-12-22T06:34:30.934Z,45.18
2018-12-22T06:35:31.706Z,45.22
2018-12-22T06:36:31.496Z,45.18
2018-12-22T06:37:31.010Z,45.17
2018-12-22T06:38:31.279Z,45.13
2018-12-22T06:39:31.338Z,45.14
2018-12-22T06:40:30.858Z,45.24
2018-12-22T06:41:31.404Z,45.2
2018-12-22T06:42:31.217Z,45.18
2018-12-22T06:43:31.264Z,45.16
2018-12-22T06:44:31.282Z,45.14
2018-12-22T06:45:31.295Z,45.16
2018-12-22T06:46:31.579Z,45.13
2018-12-22T06:47:31.393Z,45.17
2018-12-22T06:48:31.430Z,45.18
2018-12-22T06:49:31.228Z,45.13
2018-12-22T06:50:31.556Z,45.1
2018-12-22T06:51:31.326Z,45.13
2018-12-22T06:52:31.313Z,45.11
2018-12-22T06:53:31.366Z,45.09
2018-12-22T06:54:31.699Z,45.15
2018-12-22T06:55:31.185Z,45.11
2018-12-22T06:56:31.476Z,45.11
2018-12-22T06:57:31.531Z,45.14
2018-12-22T06:58:31.330Z,45.15
2018-12-22T06:59:31.351Z,45.08
2018-12-22T07:00:31.443Z,45.07
2018-12-22T07:01:31.756Z,45.12
2018-12-22T07:02:30.963Z,45.08
2018-12-22T07:03:31.093Z,45.04
2018-12-22T07:04:31.337Z,45.08
2018-12-22T07:05:31.431Z,45.04
2018-12-22T07:06:31.203Z,45.05
2018-12-22T07:07:31.514Z,45.09
2018-12-22T07:08:31.539Z,45.08
2018-12-22T07:09:31.605Z,45.06
2018-12-22T07:10:31.344Z,45.03
2018-12-22T07:11:31.393Z,45.08
2018-12-22T07:12:31.461Z,45.04
2018-12-22T07:13:31.284Z,45.07
2018-12-22T07:14:31.259Z,45.03
2018-12-22T07:15:31.338Z,45.01
2018-12-22T07:16:31.139Z,44.99
2018-12-22T07:17:31.603Z,45.01
2018-12-22T07:18:31.597Z,44.98
2018-12-22T07:19:31.034Z,45.04
2018-12-22T07:20:31.798Z,45.04
2018-12-22T07:21:31.590Z,45.02
2018-12-22T07:22:30.879Z,45.01
2018-12-22T07:23:31.457Z,44.99
2018-12-22T07:24:31.160Z,45.01
2018-12-22T07:25:30.971Z,44.96
2018-12-22T07:26:31.272Z,44.99
2018-12-22T07:27:31.377Z,44.98
2018-12-22T07:28:31.325Z,45.02
2018-12-22T07:29:31.151Z,45.04
2018-12-22T07:30:31.748Z,45.02
2018-12-22T07:31:31.456Z,44.98
2018-12-22T07:32:30.733Z,44.99
2018-12-22T07:33:31.332Z,44.98
2018-12-22T07:34:31.550Z,44.95
2018-12-22T07:35:31.352Z,44.99
2018-12-22T07:36:31.144Z,44.95
2018-12-22T07:37:31.196Z,44.97
2018-12-22T07:38:31.493Z,44.98
2018-12-22T07:39:31.513Z,44.92
2018-12-22T07:40:31.480Z,44.93
2018-12-22T07:41:31.347Z,44.96
2018-12-22T07:42:31.359Z,45.02
2018-12-22T07:43:31.581Z,44.93
2018-12-22T07:44:31.194Z,44.9
2018-12-22T07:45:31.511Z,44.96
2018-12-22T07:46:32.011Z,44.94
2018-12-22T07:47:31.264Z,44.9
2018-12-22T07:48:31.562Z,44.91
2018-12-22T07:49:31.647Z,44.93
2018-12-22T07:50:31.418Z,44.91
2018-12-22T07:51:31.425Z,44.91
2018-12-22T07:52:31.198Z,44.92
2018-12-22T07:53:31.788Z,44.91
2018-12-22T07:54:31.324Z,44.91
2018-12-22T07:55:31.347Z,44.91
2018-12-22T07:56:31.382Z,44.91
2018-12-22T07:57:31.676Z,44.9
2018-12-22T07:58:31.432Z,44.9
2018-12-22T07:59:31.216Z,44.88
2018-12-22T08:00:35.362Z,44.87
2018-12-22T08:01:31.257Z,44.87
2018-12-22T08:02:31.358Z,44.84
2018-12-22T08:03:31.333Z,44.84
2018-12-22T08:04:31.378Z,44.82
2018-12-22T08:05:39.162Z,44.83
2018-12-22T08:06:31.120Z,44.81
2018-12-22T08:07:31.700Z,44.84
2018-12-22T08:08:31.182Z,44.82
2018-12-22T08:09:31.327Z,44.77
2018-12-22T08:10:31.124Z,44.83
2018-12-22T08:11:31.417Z,44.83
2018-12-22T08:12:31.413Z,44.82
2018-12-22T08:13:31.699Z,44.81
2018-12-22T08:14:31.279Z,44.82
2018-12-22T08:15:31.261Z,44.81
2018-12-22T08:16:31.058Z,44.83
2018-12-22T08:17:31.343Z,44.85
2018-12-22T08:18:31.420Z,44.8
2018-12-22T08:19:31.250Z,44.8
2018-12-22T08:20:31.224Z,44.85
2018-12-22T08:21:31.331Z,44.81
2018-12-22T08:22:30.822Z,44.81
2018-12-22T08:23:31.392Z,44.81
2018-12-22T08:24:31.192Z,44.76
2018-12-22T08:25:31.005Z,44.8
2018-12-22T08:26:31.766Z,44.83
2018-12-22T08:27:31.308Z,44.83
2018-12-22T08:28:31.100Z,44.84
2018-12-22T08:29:31.415Z,44.76
2018-12-22T08:30:31.671Z,44.74
2018-12-22T08:31:31.455Z,44.77
2018-12-22T08:32:31.545Z,44.78
2018-12-22T08:33:31.337Z,44.79
2018-12-22T08:34:31.614Z,44.81
2018-12-22T08:35:31.094Z,44.86
2018-12-22T08:36:31.362Z,44.77
2018-12-22T08:37:31.170Z,44.75
2018-12-22T08:38:31.213Z,44.73
2018-12-22T08:39:31.318Z,44.74
2018-12-22T08:40:31.066Z,44.76
2018-12-22T08:41:31.323Z,44.76
2018-12-22T08:42:31.409Z,44.71
2018-12-22T08:43:31.394Z,44.78
2018-12-22T08:44:31.214Z,44.8
2018-12-22T08:45:31.332Z,44.72
2018-12-22T08:46:31.263Z,44.74
2018-12-22T08:47:30.768Z,44.75
2018-12-22T08:48:31.387Z,44.76
2018-12-22T08:49:32.127Z,44.78
2018-12-22T08:50:31.466Z,44.75
2018-12-22T08:51:30.437Z,44.73
2018-12-22T08:52:31.552Z,44.75
2018-12-22T08:53:31.294Z,44.73
2018-12-22T08:54:31.404Z,44.74
2018-12-22T08:55:31.389Z,44.7
2018-12-22T08:56:30.892Z,44.72
2018-12-22T08:57:31.517Z,44.73
2018-12-22T08:58:31.620Z,44.69
2018-12-22T08:59:31.040Z,44.71
2018-12-22T09:00:31.401Z,44.69
2018-12-22T09:01:31.146Z,44.67
2018-12-22T09:02:31.209Z,44.71
2018-12-22T09:03:31.520Z,44.73
2018-12-22T09:04:31.502Z,44.7
2018-12-22T09:05:31.388Z,44.67
2018-12-22T09:06:31.631Z,44.7
2018-12-22T09:07:31.376Z,44.72
2018-12-22T09:08:30.875Z,44.69
2018-12-22T09:09:31.335Z,44.67
2018-12-22T09:10:31.318Z,44.72
2018-12-22T09:11:31.635Z,44.66
2018-12-22T09:12:32.176Z,44.68
2018-12-22T09:13:31.219Z,44.69
2018-12-22T09:14:31.722Z,44.68
2018-12-22T09:15:31.325Z,44.7
2018-12-22T09:16:31.331Z,44.67
2018-12-22T09:17:31.385Z,44.65
2018-12-22T09:18:31.128Z,44.7
2018-12-22T09:19:31.249Z,44.65
2018-12-22T09:20:31.957Z,44.66
2018-12-22T09:21:31.543Z,44.69
2018-12-22T09:22:31.041Z,44.68
2018-12-22T09:23:31.604Z,44.67
2018-12-22T09:24:31.166Z,44.69
2018-12-22T09:25:31.176Z,44.66
2018-12-22T09:26:31.267Z,44.66
2018-12-22T09:27:31.560Z,44.68
2018-12-22T09:28:31.358Z,44.7
2018-12-22T09:29:31.371Z,44.66
2018-12-22T09:30:31.139Z,44.7
2018-12-22T09:31:33.286Z,44.66
2018-12-22T09:32:31.494Z,44.68
2018-12-22T09:33:31.266Z,44.67
2018-12-22T09:34:32.066Z,44.7
2018-12-22T09:35:31.352Z,44.67
2018-12-22T09:36:31.162Z,44.65
2018-12-22T09:37:31.434Z,44.65
2018-12-22T09:38:31.203Z,44.64
2018-12-22T09:39:31.239Z,44.64
2018-12-22T09:40:31.483Z,44.61
2018-12-22T09:41:32.121Z,44.64
2018-12-22T09:42:31.147Z,44.63
2018-12-22T09:43:30.918Z,44.6
2018-12-22T09:44:31.524Z,44.65
2018-12-22T09:45:31.496Z,44.62
2018-12-22T09:46:32.100Z,44.58
2018-12-22T09:47:31.427Z,44.62
2018-12-22T09:48:31.165Z,44.62
2018-12-22T09:49:31.133Z,44.63
2018-12-22T09:50:31.250Z,44.61
2018-12-22T09:51:31.229Z,44.62
2018-12-22T09:52:31.017Z,44.6
2018-12-22T09:53:31.090Z,44.63
2018-12-22T09:54:31.302Z,45.36
2018-12-22T09:55:31.155Z,45.6
2018-12-22T09:56:31.420Z,45.41
2018-12-22T09:57:31.180Z,45.76
2018-12-22T09:58:30.962Z,45.96
2018-12-22T09:59:31.294Z,45.65
2018-12-22T10:00:31.574Z,45.49
2018-12-22T10:01:30.841Z,45.66
2018-12-22T10:02:31.149Z,45.42
2018-12-22T10:03:31.152Z,45.46
2018-12-22T10:04:31.236Z,45.29
2018-12-22T10:05:31.252Z,45.19
2018-12-22T10:06:31.518Z,45.21
2018-12-22T10:07:31.299Z,45.39
2018-12-22T10:08:31.601Z,45.66
2018-12-22T10:09:31.379Z,45.41
2018-12-22T10:10:31.141Z,45.33
2018-12-22T10:11:31.276Z,45.33
2018-12-22T10:12:31.534Z,45.42
2018-12-22T10:13:31.312Z,45.34
2018-12-22T10:14:31.300Z,45.32
2018-12-22T10:15:31.376Z,45.26
2018-12-22T10:16:28.187Z,45.53
2018-12-22T10:17:28.273Z,44.97
2018-12-22T10:18:28.424Z,44.92
2018-12-22T10:19:11.322Z,44.8
2018-12-22T10:20:11.614Z,44.75
2018-12-22T10:21:11.419Z,44.61
2018-12-22T10:22:11.482Z,44.55
2018-12-22T10:23:11.756Z,44.45
2018-12-22T10:24:11.552Z,44.5
2018-12-22T10:25:11.547Z,44.32
2018-12-22T10:26:11.640Z,44.3
2018-12-22T10:27:12.162Z,44.19
2018-12-22T10:28:11.458Z,44.13
2018-12-22T10:29:11.750Z,44.28
2018-12-22T10:30:11.210Z,44.38
2018-12-22T10:31:18.397Z,44.35
2018-12-22T10:32:11.236Z,46.11
2018-12-22T10:33:11.265Z,44.68
2018-12-22T10:34:11.833Z,44.12
2018-12-22T10:35:11.086Z,44.14
2018-12-22T10:36:11.436Z,44.04
2018-12-22T10:37:11.735Z,43.96
2018-12-22T10:38:11.753Z,43.93
2018-12-22T10:39:11.326Z,43.91
2018-12-22T10:40:11.809Z,43.9
2018-12-22T10:41:11.573Z,43.84
2018-12-22T10:42:11.325Z,43.7
2018-12-22T10:42:49.362Z,43.82
2018-12-22T10:43:49.439Z,43.7
2018-12-22T10:44:49.441Z,43.69
2018-12-22T10:45:38.705Z,43.73
2018-12-22T10:46:38.450Z,43.63
2018-12-22T10:47:38.754Z,43.73
2018-12-22T10:48:38.260Z,43.77
2018-12-22T10:49:38.821Z,43.69
2018-12-22T10:50:37.757Z,43.65
2018-12-22T10:51:38.901Z,43.66
2018-12-22T10:52:38.908Z,43.65
2018-12-22T10:53:55.402Z,43.67
2018-12-22T10:54:54.957Z,43.6
2018-12-22T10:55:55.244Z,43.63
2018-12-22T10:56:54.970Z,43.6
2018-12-22T10:57:55.293Z,43.64
2018-12-22T10:58:40.633Z,44
2018-12-22T10:59:40.450Z,43.57
2018-12-22T11:00:40.290Z,43.57
2018-12-22T11:01:40.060Z,43.46
2018-12-22T11:02:40.322Z,43.57
2018-12-22T11:03:39.774Z,43.44
2018-12-22T11:04:40.181Z,43.43
2018-12-22T11:06:14.169Z,43.34
2018-12-22T11:07:13.979Z,43.43
2018-12-22T11:08:14.456Z,43.34
2018-12-22T11:09:14.766Z,43.37
2018-12-22T11:10:14.211Z,43.3
2018-12-22T11:11:14.154Z,43.31
2018-12-22T11:12:14.158Z,43.4
2018-12-22T11:13:14.216Z,43.39
2018-12-22T11:14:14.049Z,43.53
2018-12-22T11:15:14.175Z,43.46
2018-12-22T11:16:14.497Z,43.49
2018-12-22T11:17:14.195Z,43.37
2018-12-22T11:18:14.182Z,43.37
2018-12-22T11:19:14.123Z,43.36
2018-12-22T11:20:14.108Z,43.38
2018-12-22T11:21:14.380Z,43.4
2018-12-22T11:22:14.906Z,43.29
2018-12-22T11:23:20.830Z,43.27
2018-12-22T11:24:14.396Z,43.2
2018-12-22T11:25:13.823Z,43.16
2018-12-22T11:26:13.816Z,43.19
2018-12-22T11:27:13.769Z,43.28
2018-12-22T11:28:14.233Z,43.19
2018-12-22T11:29:14.535Z,43.29
2018-12-22T11:30:14.269Z,43.4
2018-12-22T11:31:14.187Z,43.39
2018-12-22T11:32:14.149Z,43.3
2018-12-22T11:33:14.179Z,43.25
2018-12-22T11:34:14.230Z,43.29
2018-12-22T11:35:14.169Z,43.33
2018-12-22T11:36:14.363Z,43.32
2018-12-22T11:37:14.110Z,43.3
2018-12-22T11:38:14.322Z,43.32
2018-12-22T11:39:14.061Z,43.32
2018-12-22T11:40:14.327Z,43.33
2018-12-22T11:41:14.136Z,43.3
2018-12-22T11:42:14.278Z,43.28
2018-12-22T11:43:14.067Z,43.29
2018-12-22T11:44:14.096Z,43.26
2018-12-22T11:45:12.868Z,43.27
2018-12-22T11:46:14.087Z,43.3
2018-12-22T11:47:14.047Z,43.27
2018-12-22T11:48:14.279Z,43.34
2018-12-22T11:49:13.851Z,43.25
2018-12-22T11:50:14.074Z,43.24
2018-12-22T11:51:14.305Z,43.28
2018-12-22T11:52:14.759Z,43.24
2018-12-22T11:53:13.972Z,43.29
2018-12-22T11:54:14.736Z,43.17
2018-12-22T11:55:14.566Z,43.22
2018-12-22T11:56:14.210Z,43.19
2018-12-22T11:57:13.973Z,43.2
2018-12-22T11:58:14.466Z,43.14
2018-12-22T11:59:14.122Z,43.06
2018-12-22T12:00:18.979Z,43.18
2018-12-22T12:01:14.350Z,43.11
2018-12-22T12:02:13.832Z,43.07
2018-12-22T12:03:14.083Z,43.14
2018-12-22T12:04:14.544Z,43.15
2018-12-22T12:05:14.060Z,43.15
2018-12-22T12:06:14.291Z,43.14
2018-12-22T12:07:14.314Z,43.18
2018-12-22T12:08:14.457Z,43.21
2018-12-22T12:09:14.234Z,43.19
2018-12-22T12:10:14.230Z,43.15
2018-12-22T12:11:14.381Z,45.31
2018-12-22T12:12:14.186Z,43.57
2018-12-22T12:13:14.443Z,43.37
2018-12-22T12:14:14.674Z,43.18
2018-12-22T12:15:12.989Z,43.1
2018-12-22T12:16:14.425Z,43.08
2018-12-22T12:17:14.166Z,43
2018-12-22T12:17:54.616Z,43.32
2018-12-22T12:18:54.348Z,43.03
2018-12-22T12:20:01.477Z,43
2018-12-22T12:22:16.918Z,42.99
2018-12-22T12:23:18.352Z,42.91
2018-12-22T12:24:18.364Z,42.79
2018-12-22T12:25:17.925Z,42.79
2018-12-22T12:26:18.197Z,42.54
2018-12-22T12:27:18.263Z,42.63
2018-12-22T12:28:18.682Z,42.76
2018-12-22T12:29:19.243Z,42.75
2018-12-22T12:30:18.665Z,42.77
2018-12-22T12:31:18.713Z,42.79
2018-12-22T12:31:53.044Z,42.86
2018-12-22T12:32:52.945Z,42.78
2018-12-22T12:33:24.032Z,42.99
2018-12-22T12:34:24.153Z,42.77
2018-12-22T12:35:24.185Z,42.82
2018-12-22T12:36:24.219Z,42.81
2018-12-22T12:37:24.212Z,42.89
2018-12-22T12:38:24.933Z,42.82
2018-12-22T12:39:24.447Z,42.8
2018-12-22T12:40:24.444Z,42.84
2018-12-22T12:41:35.470Z,42.87
2018-12-22T12:42:17.467Z,42.75
2018-12-22T12:43:17.225Z,42.8
2018-12-22T12:44:16.917Z,42.85
2018-12-22T12:45:17.183Z,42.94
2018-12-22T12:46:17.428Z,43.02
2018-12-22T12:47:17.151Z,42.93
2018-12-22T12:48:17.133Z,42.98
2018-12-22T12:49:16.121Z,43.07
2018-12-22T12:50:16.916Z,43.06
2018-12-22T12:51:07.654Z,43.61
2018-12-22T12:52:07.369Z,43.4
2018-12-22T12:53:10.020Z,43.35
2018-12-22T12:54:07.532Z,42.96
2018-12-22T12:55:07.886Z,43.04